logo
Rechercher aéroport 
image banner adimage banner adimage banner ad
image banner ad

FAROOI - Rooiberg

Situé à , South Africa

ICAO - , IATA -

Données fournies par Airmate  

Information générale

Coordonnées: S24°46'22" E27°45'20"
Élévation : 3812 feet MSL.
 
Voir autres Aéroports à Limpopo

Données opérationnelles

Special qualification required
Heure actuelle UTC:
Heure actuelle locale:
Météo à : - ( 0 km )
METAR: YSTW 251812Z AUTO 16004KT 9999 // NCD 08/07 Q1025 RF00.0/000.0
Voir NOTAMs / SUP AIP / TFR affectant cet aéroport [VIEW]
Fréquences de communication: [VIEW]

Pistes:

Identifiant RWYQFULongueur (ft)Largeur (ft)SurfaceLDA (ft)
0566°393766SAND
23246°393766SAND

Coordonnées de l'aéroport

Adresse: South Africa

Vue satellite de FAROOI